createdAt,value
2019-03-09T00:01:38.949Z,6.20
2019-03-09T00:04:08.418Z,6.20
2019-03-09T00:06:37.947Z,6.20
2019-03-09T00:09:08.386Z,6.20
2019-03-09T00:11:37.832Z,6.20
2019-03-09T00:14:07.331Z,6.20
2019-03-09T00:16:37.137Z,6.30
2019-03-09T00:19:06.591Z,6.30
2019-03-09T00:21:36.062Z,6.20
2019-03-09T00:24:43.029Z,6.30
2019-03-09T00:27:30.376Z,6.20
2019-03-09T00:30:05.528Z,6.20
2019-03-09T00:32:35.204Z,6.30
2019-03-09T00:35:04.918Z,6.20
2019-03-09T00:37:34.487Z,6.20
2019-03-09T00:40:04.537Z,6.10
2019-03-09T00:42:33.964Z,6.10
2019-03-09T00:45:03.597Z,6.20
2019-03-09T00:47:33.143Z,6.20
2019-03-09T00:50:02.629Z,6.20
2019-03-09T00:52:32.074Z,6.10
2019-03-09T00:55:01.580Z,6.20
2019-03-09T00:57:31.112Z,6.10
2019-03-09T01:00:00.591Z,6.10
2019-03-09T01:02:30.052Z,6.20
2019-03-09T01:04:59.627Z,6.10
2019-03-09T01:07:29.149Z,6.20
2019-03-09T01:09:58.638Z,6.20
2019-03-09T01:12:28.262Z,6.20
2019-03-09T01:14:57.796Z,6.20
2019-03-09T01:17:27.270Z,6.20
2019-03-09T01:19:56.793Z,6.20
2019-03-09T01:22:26.332Z,6.20
2019-03-09T01:24:55.858Z,6.30
2019-03-09T01:27:25.312Z,6.30
2019-03-09T01:29:55.023Z,6.40
2019-03-09T01:32:24.536Z,6.30
2019-03-09T01:34:54.010Z,6.30
2019-03-09T01:37:23.618Z,6.30
2019-03-09T01:39:53.178Z,6.30
2019-03-09T01:42:22.702Z,6.30
2019-03-09T01:44:52.196Z,6.40
2019-03-09T01:47:21.706Z,6.40
2019-03-09T01:49:51.488Z,6.40
2019-03-09T01:52:20.929Z,6.40
2019-03-09T01:54:51.953Z,6.40
2019-03-09T01:57:21.501Z,6.40
2019-03-09T01:59:51.014Z,6.40
2019-03-09T02:02:20.523Z,6.40
2019-03-09T02:04:50.087Z,6.40
2019-03-09T02:07:19.623Z,6.40
2019-03-09T02:09:49.061Z,6.40
2019-03-09T02:12:18.546Z,6.40
2019-03-09T02:14:47.997Z,6.40
2019-03-09T02:17:17.609Z,6.40
2019-03-09T02:19:47.227Z,6.40
2019-03-09T02:22:17.099Z,6.40
2019-03-09T02:24:46.547Z,6.40
2019-03-09T02:27:16.079Z,6.40
2019-03-09T02:29:45.600Z,6.40
2019-03-09T02:32:15.062Z,6.40
2019-03-09T02:34:44.990Z,6.40
2019-03-09T02:37:14.513Z,6.40
2019-03-09T02:39:58.397Z,6.50
2019-03-09T02:42:27.971Z,6.50
2019-03-09T02:44:57.567Z,6.50
2019-03-09T02:47:27.097Z,6.50
2019-03-09T02:49:56.540Z,6.50
2019-03-09T02:52:26.062Z,6.50
2019-03-09T02:54:55.557Z,6.50
2019-03-09T02:57:25.114Z,6.50
2019-03-09T02:59:54.742Z,6.50
2019-03-09T03:02:31.043Z,6.50
2019-03-09T03:05:00.590Z,6.50
2019-03-09T03:07:30.047Z,6.50
2019-03-09T03:09:59.527Z,6.50
2019-03-09T03:12:29.060Z,6.60
2019-03-09T03:14:58.541Z,6.50
2019-03-09T03:17:28.249Z,6.50
2019-03-09T03:19:57.891Z,6.50
2019-03-09T03:22:27.357Z,6.60
2019-03-09T03:24:56.932Z,6.50
2019-03-09T03:27:26.529Z,6.60
2019-03-09T03:29:56.332Z,6.60
2019-03-09T03:32:27.418Z,6.60
2019-03-09T03:34:56.896Z,6.60
2019-03-09T03:37:29.127Z,6.60
2019-03-09T03:39:58.708Z,6.60
2019-03-09T03:42:28.207Z,6.60
2019-03-09T03:44:57.691Z,6.60
2019-03-09T03:47:27.130Z,6.60
2019-03-09T03:49:56.611Z,6.60
2019-03-09T03:52:26.203Z,6.60
2019-03-09T03:54:55.734Z,6.60
2019-03-09T03:57:25.847Z,6.60
2019-03-09T03:59:55.446Z,6.60
2019-03-09T04:02:25.154Z,6.60
2019-03-09T04:04:54.780Z,6.60
2019-03-09T04:07:24.411Z,6.60
2019-03-09T04:09:54.285Z,6.60
2019-03-09T04:12:23.701Z,6.60
2019-03-09T04:14:53.325Z,6.60
2019-03-09T04:17:22.768Z,6.60
2019-03-09T04:19:52.255Z,6.60
2019-03-09T04:22:21.757Z,6.60
2019-03-09T04:24:51.301Z,6.60
2019-03-09T04:27:20.749Z,6.60
2019-03-09T04:29:50.468Z,6.70
2019-03-09T04:32:19.996Z,6.70
2019-03-09T04:34:49.484Z,6.70
2019-03-09T04:37:18.997Z,6.70
2019-03-09T04:39:48.562Z,6.70
2019-03-09T04:42:18.091Z,6.70
2019-03-09T04:44:47.613Z,6.70
2019-03-09T04:47:17.157Z,6.70
2019-03-09T04:49:46.674Z,6.70
2019-03-09T04:52:16.128Z,6.80
2019-03-09T04:54:45.674Z,6.80
2019-03-09T04:57:15.222Z,6.80
2019-03-09T04:59:44.671Z,6.80
2019-03-09T05:02:14.128Z,6.80
2019-03-09T05:04:50.938Z,6.80
2019-03-09T05:07:59.576Z,6.80
2019-03-09T05:10:51.226Z,6.80
2019-03-09T05:13:26.933Z,6.80
2019-03-09T05:15:56.416Z,6.80
2019-03-09T05:18:26.079Z,6.80
2019-03-09T05:20:55.527Z,6.80
2019-03-09T05:23:25.173Z,6.70
2019-03-09T05:25:54.635Z,6.70
2019-03-09T05:28:24.145Z,6.70
2019-03-09T05:30:53.618Z,6.70
2019-03-09T05:33:23.143Z,6.60
2019-03-09T05:35:52.600Z,6.70
2019-03-09T05:38:22.139Z,6.70
2019-03-09T05:40:51.641Z,6.70
2019-03-09T05:43:21.186Z,6.70
2019-03-09T05:45:50.745Z,6.70
2019-03-09T05:48:20.315Z,6.70
2019-03-09T05:50:49.790Z,6.70
2019-03-09T05:53:23.422Z,6.70
2019-03-09T05:55:53.063Z,6.70
2019-03-09T05:58:22.668Z,6.70
2019-03-09T06:00:52.283Z,6.70
2019-03-09T06:03:21.810Z,6.70
2019-03-09T06:05:56.970Z,6.70
2019-03-09T06:08:26.474Z,6.60
2019-03-09T06:10:56.051Z,6.60
2019-03-09T06:13:25.490Z,6.60
2019-03-09T06:15:54.985Z,6.60
2019-03-09T06:18:27.194Z,6.60
2019-03-09T06:20:56.667Z,6.50
2019-03-09T06:23:26.194Z,6.50
2019-03-09T06:25:55.643Z,6.50
2019-03-09T06:28:25.146Z,6.40
2019-03-09T06:30:54.801Z,6.40
2019-03-09T06:33:34.324Z,6.40
2019-03-09T06:36:53.658Z,6.30
2019-03-09T06:39:43.448Z,6.30
2019-03-09T06:42:29.788Z,6.30
2019-03-09T06:44:59.250Z,6.30
2019-03-09T06:47:28.920Z,6.30
2019-03-09T06:49:58.431Z,6.30
2019-03-09T06:52:27.920Z,6.30
2019-03-09T06:54:57.385Z,6.20
2019-03-09T06:57:26.932Z,6.20
2019-03-09T06:59:56.398Z,6.30
2019-03-09T07:02:25.936Z,6.20
2019-03-09T07:04:55.400Z,6.30
2019-03-09T07:07:24.874Z,6.20
2019-03-09T07:09:54.329Z,6.20
2019-03-09T07:12:23.846Z,6.20
2019-03-09T07:15:25.284Z,6.20
2019-03-09T07:17:57.055Z,6.20
2019-03-09T07:20:26.659Z,6.20
2019-03-09T07:22:56.201Z,6.20
2019-03-09T07:25:25.716Z,6.20
2019-03-09T07:28:06.111Z,6.20
2019-03-09T07:30:35.860Z,6.20
2019-03-09T07:33:05.483Z,6.20
2019-03-09T07:35:34.936Z,6.20
2019-03-09T07:38:04.630Z,6.20
2019-03-09T07:40:34.154Z,6.20
2019-03-09T07:43:04.350Z,6.30
2019-03-09T07:45:34.111Z,6.30
2019-03-09T07:48:03.692Z,6.30
2019-03-09T07:50:33.183Z,6.30
2019-03-09T07:53:02.637Z,6.30
2019-03-09T07:55:32.159Z,6.40
2019-03-09T07:58:02.927Z,6.40
2019-03-09T08:00:32.671Z,6.40
2019-03-09T08:03:02.300Z,6.40
2019-03-09T08:05:31.820Z,6.50
2019-03-09T08:08:01.405Z,6.50
2019-03-09T08:10:30.966Z,6.50
2019-03-09T08:13:00.563Z,6.50
2019-03-09T08:15:30.051Z,6.60
2019-03-09T08:17:59.631Z,6.70
2019-03-09T08:20:29.184Z,6.70
2019-03-09T08:22:58.802Z,6.80
2019-03-09T08:25:28.306Z,6.80
2019-03-09T08:27:57.778Z,6.80
2019-03-09T08:30:27.535Z,6.80
2019-03-09T08:32:57.220Z,6.90
2019-03-09T08:35:26.821Z,6.90
2019-03-09T08:37:56.370Z,7.00
2019-03-09T08:40:25.928Z,7.00
2019-03-09T08:42:55.437Z,7.00
2019-03-09T08:45:25.051Z,7.00
2019-03-09T08:47:54.652Z,7.00
2019-03-09T08:50:24.492Z,7.00
2019-03-09T08:52:54.071Z,6.90
2019-03-09T08:55:23.662Z,6.90
2019-03-09T08:57:53.177Z,6.90
2019-03-09T09:00:30.043Z,7.00
2019-03-09T09:02:59.197Z,7.00
2019-03-09T09:05:28.770Z,7.00
2019-03-09T09:07:58.439Z,6.90
2019-03-09T09:10:28.082Z,6.90
2019-03-09T09:12:57.613Z,6.90
2019-03-09T09:15:27.163Z,6.90
2019-03-09T09:17:56.813Z,6.90
2019-03-09T09:20:26.366Z,6.90
2019-03-09T09:22:56.121Z,7.10
2019-03-09T09:25:25.587Z,7.30
2019-03-09T09:27:55.510Z,7.40
2019-03-09T09:30:26.244Z,7.50
2019-03-09T09:32:55.845Z,7.70
2019-03-09T09:35:25.474Z,7.90
2019-03-09T09:37:55.101Z,8.00
2019-03-09T09:40:25.010Z,8.00
2019-03-09T09:42:54.869Z,8.10
2019-03-09T09:45:24.571Z,8.10
2019-03-09T09:47:54.168Z,8.20
2019-03-09T09:50:24.127Z,8.10
2019-03-09T09:52:53.663Z,8.20
2019-03-09T09:55:23.303Z,8.30
2019-03-09T09:57:52.775Z,8.40
2019-03-09T10:00:23.983Z,8.40
2019-03-09T10:02:53.541Z,8.60
2019-03-09T10:05:23.140Z,8.80
2019-03-09T10:07:52.786Z,8.90
2019-03-09T10:10:22.738Z,9.00
2019-03-09T10:12:52.694Z,9.10
2019-03-09T10:15:23.710Z,9.30
2019-03-09T10:17:53.596Z,9.30
2019-03-09T10:20:23.210Z,9.20
2019-03-09T10:23:02.944Z,9.20
2019-03-09T10:25:23.986Z,9.30
2019-03-09T10:27:53.466Z,9.50
2019-03-09T10:30:25.888Z,9.70
2019-03-09T10:32:55.486Z,9.70
2019-03-09T10:35:25.026Z,9.70
2019-03-09T10:37:54.722Z,9.80
2019-03-09T10:40:24.294Z,9.60
2019-03-09T10:42:53.763Z,9.50
2019-03-09T10:45:23.341Z,9.50
2019-03-09T10:47:52.915Z,9.30
2019-03-09T10:50:22.456Z,9.30
2019-03-09T10:52:51.909Z,9.20
2019-03-09T10:55:21.705Z,9.30
2019-03-09T10:57:51.313Z,9.40
2019-03-09T11:00:23.213Z,9.40
2019-03-09T11:02:52.811Z,9.30
2019-03-09T11:05:22.459Z,9.40
2019-03-09T11:07:52.341Z,9.40
2019-03-09T11:10:22.010Z,9.50
2019-03-09T11:12:51.643Z,9.40
2019-03-09T11:15:21.285Z,9.50
2019-03-09T11:17:50.805Z,9.30
2019-03-09T11:20:20.555Z,9.20
2019-03-09T11:22:50.129Z,9.30
2019-03-09T11:25:19.848Z,9.30
2019-03-09T11:27:49.441Z,9.30
2019-03-09T11:30:24.146Z,9.20
2019-03-09T11:32:53.675Z,9.20
2019-03-09T11:35:23.263Z,9.20
2019-03-09T11:37:52.799Z,9.30
2019-03-09T11:40:22.428Z,9.30
2019-03-09T11:42:52.088Z,9.40
2019-03-09T11:45:21.907Z,9.50
2019-03-09T11:47:51.407Z,9.50
2019-03-09T11:50:20.863Z,9.50
2019-03-09T11:52:50.434Z,9.60
2019-03-09T11:55:20.058Z,9.60
2019-03-09T11:57:49.750Z,9.60
2019-03-09T12:00:23.917Z,9.70
2019-03-09T12:02:53.614Z,9.80
2019-03-09T12:05:23.212Z,9.90
2019-03-09T12:07:52.913Z,10.00
2019-03-09T12:10:22.500Z,10.00
2019-03-09T12:12:52.175Z,9.90
2019-03-09T12:15:21.869Z,9.90
2019-03-09T12:17:51.679Z,10.10
2019-03-09T12:20:22.802Z,10.20
2019-03-09T12:22:52.357Z,10.40
2019-03-09T12:25:21.964Z,10.40
2019-03-09T12:27:51.544Z,10.40
2019-03-09T12:30:21.184Z,10.50
2019-03-09T12:32:50.781Z,10.50
2019-03-09T12:35:20.291Z,10.60
2019-03-09T12:37:49.807Z,10.60
2019-03-09T12:40:19.389Z,10.70
2019-03-09T12:42:48.955Z,10.60
2019-03-09T12:45:18.517Z,10.60
2019-03-09T12:47:48.160Z,10.70
2019-03-09T12:50:18.043Z,10.70
2019-03-09T12:52:47.905Z,10.60
2019-03-09T12:55:17.498Z,10.50
2019-03-09T12:57:47.215Z,10.50
2019-03-09T13:00:17.777Z,10.50
2019-03-09T13:02:47.328Z,10.50
2019-03-09T13:05:17.233Z,10.40
2019-03-09T13:07:46.870Z,10.40
2019-03-09T13:10:16.747Z,10.40
2019-03-09T13:12:46.609Z,10.40
2019-03-09T13:15:16.427Z,10.40
2019-03-09T13:17:46.091Z,10.40
2019-03-09T13:20:15.860Z,10.40
2019-03-09T13:22:45.513Z,10.30
2019-03-09T13:25:15.462Z,10.30
2019-03-09T13:27:44.990Z,10.40
2019-03-09T13:30:16.332Z,10.40
2019-03-09T13:32:45.910Z,10.50
2019-03-09T13:35:15.520Z,10.50
2019-03-09T13:37:45.253Z,10.60
2019-03-09T13:40:15.704Z,10.60
2019-03-09T13:42:45.314Z,10.60
2019-03-09T13:45:14.916Z,10.70
2019-03-09T13:47:44.412Z,10.70
2019-03-09T13:50:14.377Z,10.80
2019-03-09T13:52:43.941Z,10.80
2019-03-09T13:55:14.105Z,10.80
2019-03-09T13:57:43.666Z,10.80
2019-03-09T14:00:14.391Z,10.70
2019-03-09T14:02:43.981Z,10.60
2019-03-09T14:05:13.557Z,10.50
2019-03-09T14:07:43.134Z,10.50
2019-03-09T14:10:12.811Z,10.50
2019-03-09T14:12:42.365Z,10.60
2019-03-09T14:15:13.388Z,10.60
2019-03-09T14:17:42.949Z,10.80
2019-03-09T14:20:12.859Z,10.90
2019-03-09T14:22:42.657Z,10.90
2019-03-09T14:25:12.658Z,10.90
2019-03-09T14:27:42.155Z,10.90
2019-03-09T14:30:13.209Z,10.80
2019-03-09T14:32:42.735Z,10.80
2019-03-09T14:35:12.421Z,10.70
2019-03-09T14:37:41.948Z,10.60
2019-03-09T14:40:11.820Z,10.60
2019-03-09T14:42:41.393Z,10.50
2019-03-09T14:45:13.760Z,10.50
2019-03-09T14:47:43.630Z,10.40
2019-03-09T14:50:13.822Z,10.30
2019-03-09T14:52:43.439Z,10.30
2019-03-09T14:55:13.081Z,10.20
2019-03-09T14:57:42.735Z,10.30
2019-03-09T15:00:15.398Z,10.30
2019-03-09T15:02:44.925Z,10.30
2019-03-09T15:05:14.551Z,10.30
2019-03-09T15:07:44.076Z,10.30
2019-03-09T15:10:13.994Z,10.30
2019-03-09T15:12:43.495Z,10.30
2019-03-09T15:15:13.265Z,10.40
2019-03-09T15:17:42.898Z,10.40
2019-03-09T15:20:12.552Z,10.30
2019-03-09T15:22:42.108Z,10.30
2019-03-09T15:25:12.176Z,10.30
2019-03-09T15:27:41.744Z,10.30
2019-03-09T15:30:12.814Z,10.10
2019-03-09T15:32:42.664Z,9.90
2019-03-09T15:35:12.378Z,9.70
2019-03-09T15:37:43.451Z,9.60
2019-03-09T15:40:13.944Z,9.50
2019-03-09T15:42:43.412Z,9.50
2019-03-09T15:45:13.344Z,9.40
2019-03-09T15:47:43.234Z,9.40
2019-03-09T15:50:13.201Z,9.40
2019-03-09T15:52:42.754Z,9.40
2019-03-09T15:55:12.449Z,9.40
2019-03-09T15:57:42.155Z,9.30
2019-03-09T16:00:14.291Z,9.40
2019-03-09T16:02:43.891Z,9.40
2019-03-09T16:05:13.607Z,9.40
2019-03-09T16:07:43.175Z,9.30
2019-03-09T16:10:13.634Z,9.30
2019-03-09T16:12:43.329Z,9.40
2019-03-09T16:15:13.616Z,9.40
2019-03-09T16:17:43.161Z,9.40
2019-03-09T16:20:14.727Z,9.20
2019-03-09T16:22:44.272Z,9.10
2019-03-09T16:25:13.737Z,9.10
2019-03-09T16:27:43.417Z,9.10
2019-03-09T16:30:15.360Z,9.00
2019-03-09T16:32:44.925Z,8.90
2019-03-09T16:35:14.422Z,8.80
2019-03-09T16:37:44.400Z,8.70
2019-03-09T16:40:14.393Z,8.50
2019-03-09T16:42:43.940Z,8.40
2019-03-09T16:45:13.615Z,8.40
2019-03-09T16:47:43.250Z,8.30
2019-03-09T16:50:13.235Z,8.20
2019-03-09T16:52:42.842Z,8.20
2019-03-09T16:55:12.524Z,8.20
2019-03-09T16:57:42.061Z,8.20
2019-03-09T17:00:14.506Z,8.20
2019-03-09T17:02:43.963Z,8.20
2019-03-09T17:05:13.874Z,8.10
2019-03-09T17:07:43.522Z,8.00
2019-03-09T17:10:13.164Z,8.10
2019-03-09T17:12:42.722Z,8.10
2019-03-09T17:15:12.982Z,8.10
2019-03-09T17:17:42.605Z,8.10
2019-03-09T17:20:12.629Z,8.00
2019-03-09T17:22:42.240Z,8.10
2019-03-09T17:25:12.502Z,8.10
2019-03-09T17:27:42.157Z,8.00
2019-03-09T17:30:13.899Z,7.90
2019-03-09T17:32:43.367Z,7.90
2019-03-09T17:35:13.248Z,7.90
2019-03-09T17:37:42.859Z,7.90
2019-03-09T17:40:12.709Z,7.90
2019-03-09T17:42:42.250Z,7.80
2019-03-09T17:45:16.365Z,7.80
2019-03-09T17:47:45.999Z,7.80
2019-03-09T17:50:15.633Z,7.80
2019-03-09T17:52:45.173Z,8.00
2019-03-09T17:55:14.746Z,8.00
2019-03-09T17:57:44.317Z,7.90
2019-03-09T18:00:16.485Z,7.90
2019-03-09T18:02:46.111Z,7.80
2019-03-09T18:05:15.791Z,7.80
2019-03-09T18:07:45.315Z,7.80
2019-03-09T18:10:41.687Z,7.70
2019-03-09T18:13:11.233Z,7.70
2019-03-09T18:15:40.915Z,7.70
2019-03-09T18:18:10.437Z,7.60
2019-03-09T18:20:39.941Z,7.60
2019-03-09T18:23:09.396Z,7.60
2019-03-09T18:25:39.074Z,7.60
2019-03-09T18:28:08.621Z,7.60
2019-03-09T18:30:38.204Z,7.50
2019-03-09T18:33:07.716Z,7.60
2019-03-09T18:35:37.270Z,7.60
2019-03-09T18:38:06.820Z,7.50
2019-03-09T18:40:36.349Z,7.40
2019-03-09T18:43:06.195Z,7.40
2019-03-09T18:45:35.696Z,7.40
2019-03-09T18:48:05.283Z,7.30
2019-03-09T18:50:34.856Z,7.30
2019-03-09T18:53:04.330Z,7.40
2019-03-09T18:55:33.891Z,7.40
2019-03-09T18:58:03.502Z,7.40
2019-03-09T19:00:33.039Z,7.40
2019-03-09T19:03:02.547Z,7.40
2019-03-09T19:05:32.197Z,7.40
2019-03-09T19:08:01.874Z,7.50
2019-03-09T19:10:31.390Z,7.50
2019-03-09T19:13:00.965Z,7.50
2019-03-09T19:15:30.498Z,7.50
2019-03-09T19:18:00.128Z,7.50
2019-03-09T19:20:29.637Z,7.50
2019-03-09T19:22:59.145Z,7.50
2019-03-09T19:25:28.654Z,7.40
2019-03-09T19:27:58.140Z,7.40
2019-03-09T19:30:28.936Z,7.40
2019-03-09T19:33:00.669Z,7.40
2019-03-09T19:35:29.779Z,7.30
2019-03-09T19:37:59.559Z,7.30
2019-03-09T19:40:29.200Z,7.30
2019-03-09T19:42:58.721Z,7.30
2019-03-09T19:45:28.304Z,7.30
2019-03-09T19:47:57.903Z,7.40
2019-03-09T19:50:27.763Z,7.40
2019-03-09T19:52:59.163Z,7.40
2019-03-09T19:55:28.496Z,7.40
2019-03-09T19:57:57.961Z,7.40
2019-03-09T20:00:27.494Z,7.40
2019-03-09T20:02:57.022Z,7.40
2019-03-09T20:05:26.524Z,7.40
2019-03-09T20:07:56.089Z,7.30
2019-03-09T20:10:26.167Z,7.30
2019-03-09T20:12:55.777Z,7.30
2019-03-09T20:15:25.475Z,7.40
2019-03-09T20:17:54.936Z,7.40
2019-03-09T20:20:24.394Z,7.40
2019-03-09T20:22:54.118Z,7.40
2019-03-09T20:25:23.586Z,7.40
2019-03-09T20:27:53.054Z,7.40
2019-03-09T20:30:22.873Z,7.40
2019-03-09T20:32:52.522Z,7.40
2019-03-09T20:35:25.421Z,7.30
2019-03-09T20:37:56.498Z,7.30
2019-03-09T20:40:26.257Z,7.20
2019-03-09T20:42:55.692Z,7.30
2019-03-09T20:45:25.249Z,7.20
2019-03-09T20:47:54.726Z,7.20
2019-03-09T20:50:24.362Z,7.20
2019-03-09T20:52:53.817Z,7.20
2019-03-09T20:55:23.358Z,7.20
2019-03-09T20:57:52.882Z,7.20
2019-03-09T21:00:22.440Z,7.20
2019-03-09T21:02:52.091Z,7.20
2019-03-09T21:05:21.765Z,7.20
2019-03-09T21:07:51.314Z,7.20
2019-03-09T21:10:21.023Z,7.10
2019-03-09T21:13:01.022Z,7.10
2019-03-09T21:15:30.622Z,7.10
2019-03-09T21:18:00.265Z,7.10
2019-03-09T21:20:30.197Z,7.00
2019-03-09T21:22:59.643Z,7.00
2019-03-09T21:25:31.912Z,7.00
2019-03-09T21:28:01.485Z,6.90
2019-03-09T21:30:31.045Z,6.80
2019-03-09T21:33:00.505Z,6.80
2019-03-09T21:35:30.345Z,6.80
2019-03-09T21:37:59.898Z,6.80
2019-03-09T21:40:29.459Z,6.70
2019-03-09T21:42:58.996Z,6.70
2019-03-09T21:45:28.537Z,6.70
2019-03-09T21:47:58.278Z,6.60
2019-03-09T21:50:28.060Z,6.60
2019-03-09T21:52:57.520Z,6.60
2019-03-09T21:55:27.040Z,6.60
2019-03-09T21:57:56.567Z,6.60
2019-03-09T22:00:26.148Z,6.50
2019-03-09T22:02:55.664Z,6.40
2019-03-09T22:05:25.160Z,6.40
2019-03-09T22:07:55.851Z,6.40
2019-03-09T22:10:25.561Z,6.30
2019-03-09T22:12:55.089Z,6.40
2019-03-09T22:15:24.606Z,6.40
2019-03-09T22:17:54.057Z,6.30
2019-03-09T22:20:23.548Z,6.30
2019-03-09T22:22:53.047Z,6.30
2019-03-09T22:25:22.658Z,6.30
2019-03-09T22:27:52.112Z,6.30
2019-03-09T22:30:21.732Z,6.30
2019-03-09T22:32:51.175Z,6.30
2019-03-09T22:35:20.714Z,6.30
2019-03-09T22:37:50.198Z,6.30
2019-03-09T22:40:19.807Z,6.20
2019-03-09T22:42:49.320Z,6.20
2019-03-09T22:45:18.763Z,6.20
2019-03-09T22:47:48.348Z,6.20
2019-03-09T22:50:17.940Z,6.10
2019-03-09T22:52:47.494Z,6.10
2019-03-09T22:55:17.098Z,6.10
2019-03-09T22:57:46.552Z,6.10
2019-03-09T23:00:17.349Z,6.10
2019-03-09T23:02:47.044Z,6.00
2019-03-09T23:05:16.571Z,6.00
2019-03-09T23:07:46.114Z,6.00
2019-03-09T23:10:16.278Z,6.00
2019-03-09T23:12:45.886Z,6.00
2019-03-09T23:15:15.729Z,5.90
2019-03-09T23:17:45.380Z,5.90
2019-03-09T23:20:15.243Z,5.90
2019-03-09T23:22:44.925Z,5.90
2019-03-09T23:25:14.821Z,5.90
2019-03-09T23:27:44.422Z,5.90
2019-03-09T23:30:17.246Z,5.90
2019-03-09T23:32:47.740Z,5.80
2019-03-09T23:35:17.487Z,5.80
2019-03-09T23:37:47.287Z,5.80
2019-03-09T23:40:17.026Z,5.80
2019-03-09T23:42:46.492Z,5.80
2019-03-09T23:45:16.626Z,5.80
2019-03-09T23:47:46.212Z,5.80
2019-03-09T23:50:16.341Z,5.70
2019-03-09T23:52:46.288Z,5.80
2019-03-09T23:55:21.862Z,5.70
2019-03-09T23:57:48.024Z,5.70
